createdAt,value
2019-02-20T00:00:42.033Z,1022.5
2019-02-20T00:01:41.996Z,1022.5
2019-02-20T00:02:42.026Z,1022.5
2019-02-20T00:03:42.006Z,1022.5
2019-02-20T00:04:42.016Z,1022.5
2019-02-20T00:05:43.110Z,1022.6
2019-02-20T00:06:42.065Z,1022.5
2019-02-20T00:07:42.066Z,1022.5
2019-02-20T00:08:42.080Z,1022.5
2019-02-20T00:09:42.077Z,1022.6
2019-02-20T00:10:42.064Z,1022.6
2019-02-20T00:12:12.850Z,1022.7
2019-02-20T00:12:42.094Z,1022.6
2019-02-20T00:13:42.133Z,1022.6
2019-02-20T00:14:42.140Z,1022.7
2019-02-20T00:15:42.110Z,1022.7
2019-02-20T00:16:42.145Z,1022.6
2019-02-20T00:17:42.161Z,1022.6
2019-02-20T00:18:42.139Z,1022.7
2019-02-20T00:19:42.149Z,1022.6
2019-02-20T00:20:42.152Z,1022.7
2019-02-20T00:21:42.195Z,1022.7
2019-02-20T00:22:42.200Z,1022.7
2019-02-20T00:23:42.220Z,1022.7
2019-02-20T00:24:42.247Z,1022.8
2019-02-20T00:25:42.231Z,1022.8
2019-02-20T00:26:42.213Z,1022.7
2019-02-20T00:27:42.220Z,1022.8
2019-02-20T00:28:42.249Z,1022.8
2019-02-20T00:29:42.225Z,1022.9
2019-02-20T00:30:42.521Z,1022.9
2019-02-20T00:31:42.291Z,1022.9
2019-02-20T00:32:42.340Z,1022.8
2019-02-20T00:33:42.332Z,1022.8
2019-02-20T00:34:42.309Z,1022.8
2019-02-20T00:35:42.365Z,1022.9
2019-02-20T00:36:42.371Z,1022.9
2019-02-20T00:37:42.338Z,1022.9
2019-02-20T00:38:42.372Z,1022.9
2019-02-20T00:39:42.370Z,1022.9
2019-02-20T00:40:42.364Z,1023
2019-02-20T00:41:42.399Z,1023
2019-02-20T00:42:42.399Z,1023
2019-02-20T00:43:42.368Z,1023
2019-02-20T00:44:42.406Z,1023
2019-02-20T00:45:42.397Z,1023
2019-02-20T00:46:42.417Z,1023
2019-02-20T00:47:42.438Z,1023
2019-02-20T00:48:42.472Z,1023
2019-02-20T00:49:42.405Z,1023
2019-02-20T00:50:42.423Z,1023.1
2019-02-20T00:51:42.426Z,1023.1
2019-02-20T00:52:49.548Z,1023
2019-02-20T00:53:42.445Z,1023.1
2019-02-20T00:54:42.476Z,1023.1
2019-02-20T00:55:42.456Z,1023
2019-02-20T00:56:42.524Z,1023.1
2019-02-20T00:57:42.521Z,1023
2019-02-20T00:58:42.491Z,1023.1
2019-02-20T00:59:42.513Z,1023.1
2019-02-20T01:00:42.533Z,1023.1
2019-02-20T01:01:42.513Z,1023.1
2019-02-20T01:02:42.559Z,1023.1
2019-02-20T01:03:42.570Z,1023.2
2019-02-20T01:04:42.564Z,1023.2
2019-02-20T01:05:42.608Z,1023.2
2019-02-20T01:06:45.242Z,1023.2
2019-02-20T01:07:42.598Z,1023.1
2019-02-20T01:08:42.601Z,1023.2
2019-02-20T01:09:42.598Z,1023.2
2019-02-20T01:10:42.601Z,1023.1
2019-02-20T01:11:42.638Z,1023.2
2019-02-20T01:12:42.642Z,1023.1
2019-02-20T01:13:42.652Z,1023.1
2019-02-20T01:14:42.666Z,1023.1
2019-02-20T01:15:42.616Z,1023.1
2019-02-20T01:16:42.646Z,1023.1
2019-02-20T01:17:42.657Z,1023.1
2019-02-20T01:18:42.672Z,1023.1
2019-02-20T01:19:42.651Z,1023.1
2019-02-20T01:20:42.725Z,1023.1
2019-02-20T01:21:42.669Z,1023.1
2019-02-20T01:22:42.688Z,1023.1
2019-02-20T01:23:42.710Z,1023.2
2019-02-20T01:24:42.751Z,1023.1
2019-02-20T01:25:42.713Z,1023.1
2019-02-20T01:26:42.746Z,1023
2019-02-20T01:27:42.746Z,1023
2019-02-20T01:28:42.753Z,1023
2019-02-20T01:29:42.828Z,1022.9
2019-02-20T01:30:42.827Z,1023
2019-02-20T01:31:42.805Z,1023
2019-02-20T01:32:42.879Z,1023
2019-02-20T01:33:42.823Z,1023
2019-02-20T01:34:42.818Z,1022.8
2019-02-20T01:35:42.855Z,1023
2019-02-20T01:36:42.825Z,1022.9
2019-02-20T01:37:42.819Z,1022.9
2019-02-20T01:38:42.878Z,1022.9
2019-02-20T01:39:42.846Z,1022.9
2019-02-20T01:40:42.881Z,1022.9
2019-02-20T01:41:42.836Z,1022.9
2019-02-20T01:42:42.901Z,1022.9
2019-02-20T01:43:42.850Z,1022.8
2019-02-20T01:44:43.003Z,1022.9
2019-02-20T01:45:42.875Z,1023
2019-02-20T01:46:43.020Z,1022.9
2019-02-20T01:47:42.942Z,1022.9
2019-02-20T01:48:43.057Z,1023
2019-02-20T01:49:42.947Z,1022.9
2019-02-20T01:50:42.935Z,1022.9
2019-02-20T01:51:44.911Z,1022.9
2019-02-20T01:52:42.996Z,1023
2019-02-20T01:53:42.975Z,1022.9
2019-02-20T01:54:43.019Z,1023
2019-02-20T01:55:43.022Z,1023
2019-02-20T01:56:42.998Z,1023
2019-02-20T01:57:43.030Z,1022.9
2019-02-20T01:58:43.044Z,1022.9
2019-02-20T01:59:43.105Z,1023
2019-02-20T02:00:43.094Z,1023
2019-02-20T02:01:43.048Z,1023
2019-02-20T02:02:43.059Z,1023.1
2019-02-20T02:03:43.051Z,1022.9
2019-02-20T02:04:43.126Z,1022.9
2019-02-20T02:05:43.085Z,1023
2019-02-20T02:06:43.140Z,1023
2019-02-20T02:07:43.072Z,1023
2019-02-20T02:08:43.101Z,1023
2019-02-20T02:09:43.085Z,1023
2019-02-20T02:10:43.109Z,1023
2019-02-20T02:11:43.204Z,1023
2019-02-20T02:12:43.123Z,1023
2019-02-20T02:13:43.147Z,1022.9
2019-02-20T02:14:43.197Z,1023
2019-02-20T02:15:43.176Z,1023
2019-02-20T02:16:43.273Z,1023
2019-02-20T02:17:43.278Z,1023
2019-02-20T02:18:43.215Z,1023
2019-02-20T02:19:43.321Z,1022.9
2019-02-20T02:20:43.259Z,1023
2019-02-20T02:21:43.245Z,1023
2019-02-20T02:22:43.382Z,1023
2019-02-20T02:23:43.286Z,1023
2019-02-20T02:24:43.270Z,1023
2019-02-20T02:25:43.262Z,1022.9
2019-02-20T02:26:43.303Z,1023.1
2019-02-20T02:27:43.313Z,1023
2019-02-20T02:28:43.273Z,1022.9
2019-02-20T02:29:43.317Z,1023
2019-02-20T02:30:43.298Z,1023
2019-02-20T02:31:43.303Z,1023
2019-02-20T02:32:43.299Z,1023
2019-02-20T02:33:43.344Z,1023
2019-02-20T02:34:43.343Z,1023
2019-02-20T02:35:43.292Z,1023
2019-02-20T02:36:43.327Z,1023
2019-02-20T02:37:43.418Z,1023.1
2019-02-20T02:38:43.333Z,1023.1
2019-02-20T02:39:43.475Z,1023
2019-02-20T02:40:43.381Z,1023.1
2019-02-20T02:41:44.804Z,1023.1
2019-02-20T02:42:43.439Z,1023.1
2019-02-20T02:43:43.399Z,1023.2
2019-02-20T02:44:43.484Z,1023.1
2019-02-20T02:45:43.409Z,1023.1
2019-02-20T02:46:43.518Z,1023.2
2019-02-20T02:47:43.501Z,1023.1
2019-02-20T02:48:43.518Z,1023.2
2019-02-20T02:49:43.469Z,1023.2
2019-02-20T02:50:43.455Z,1023.2
2019-02-20T02:51:43.497Z,1023.2
2019-02-20T02:52:43.602Z,1023.2
2019-02-20T02:53:43.448Z,1023.1
2019-02-20T02:54:43.557Z,1023.2
2019-02-20T02:55:43.643Z,1023.2
2019-02-20T02:56:43.717Z,1023.1
2019-02-20T02:57:43.688Z,1023.2
2019-02-20T02:58:43.495Z,1023.2
2019-02-20T02:59:43.573Z,1023.1
2019-02-20T03:00:43.663Z,1023.1
2019-02-20T03:01:43.504Z,1023.1
2019-02-20T03:02:43.495Z,1023.1
2019-02-20T03:03:43.545Z,1023.2
2019-02-20T03:04:43.571Z,1023.2
2019-02-20T03:05:43.541Z,1023.2
2019-02-20T03:06:43.535Z,1023.2
2019-02-20T03:07:43.562Z,1023.2
2019-02-20T03:08:43.523Z,1023.2
2019-02-20T03:09:43.574Z,1023.2
2019-02-20T03:10:43.575Z,1023.1
2019-02-20T03:11:43.568Z,1023.1
2019-02-20T03:12:43.557Z,1023.2
2019-02-20T03:13:43.545Z,1023.2
2019-02-20T03:14:43.603Z,1023.1
2019-02-20T03:15:43.588Z,1023.1
2019-02-20T03:16:43.568Z,1023.2
2019-02-20T03:17:43.559Z,1023.2
2019-02-20T03:18:43.567Z,1023.2
2019-02-20T03:19:43.619Z,1023.2
2019-02-20T03:20:43.579Z,1023.2
2019-02-20T03:21:43.572Z,1023.2
2019-02-20T03:22:43.580Z,1023.2
2019-02-20T03:23:43.588Z,1023.2
2019-02-20T03:24:43.608Z,1023.3
2019-02-20T03:25:43.601Z,1023.3
2019-02-20T03:26:43.607Z,1023.3
2019-02-20T03:27:43.664Z,1023.3
2019-02-20T03:28:43.635Z,1023.3
2019-02-20T03:29:43.640Z,1023.2
2019-02-20T03:30:43.785Z,1023.3
2019-02-20T03:31:43.666Z,1023.3
2019-02-20T03:32:43.659Z,1023.2
2019-02-20T03:33:43.646Z,1023.3
2019-02-20T03:34:43.655Z,1023.4
2019-02-20T03:35:43.640Z,1023.3
2019-02-20T03:36:43.653Z,1023.3
2019-02-20T03:37:43.674Z,1023.3
2019-02-20T03:38:43.788Z,1023.3
2019-02-20T03:39:43.753Z,1023.4
2019-02-20T03:40:43.681Z,1023.4
2019-02-20T03:41:43.737Z,1023.4
2019-02-20T03:42:43.687Z,1023.4
2019-02-20T03:43:43.724Z,1023.5
2019-02-20T03:44:48.839Z,1023.4
2019-02-20T03:45:43.715Z,1023.5
2019-02-20T03:46:43.763Z,1023.5
2019-02-20T03:47:43.711Z,1023.5
2019-02-20T03:48:43.770Z,1023.4
2019-02-20T03:49:43.784Z,1023.4
2019-02-20T03:50:43.774Z,1023.5
2019-02-20T03:51:43.760Z,1023.5
2019-02-20T03:52:43.775Z,1023.4
2019-02-20T03:53:51.093Z,1023.5
2019-02-20T03:54:43.997Z,1023.5
2019-02-20T03:55:44.078Z,1023.5
2019-02-20T03:56:43.857Z,1023.6
2019-02-20T03:57:43.822Z,1023.6
2019-02-20T03:58:43.857Z,1023.6
2019-02-20T03:59:43.864Z,1023.5
2019-02-20T04:00:43.898Z,1023.6
2019-02-20T04:01:43.891Z,1023.5
2019-02-20T04:02:48.848Z,1023.6
2019-02-20T04:03:43.901Z,1023.6
2019-02-20T04:04:44.029Z,1023.6
2019-02-20T04:05:43.903Z,1023.6
2019-02-20T04:06:43.915Z,1023.5
2019-02-20T04:07:44.063Z,1023.5
2019-02-20T04:08:43.891Z,1023.5
2019-02-20T04:09:43.908Z,1023.5
2019-02-20T04:10:43.983Z,1023.4
2019-02-20T04:11:44.411Z,1023.4
2019-02-20T04:12:44.037Z,1023.5
2019-02-20T04:13:43.983Z,1023.5
2019-02-20T04:14:44.011Z,1023.5
2019-02-20T04:15:43.972Z,1023.5
2019-02-20T04:16:44.031Z,1023.6
2019-02-20T04:17:44.007Z,1023.4
2019-02-20T04:18:44.084Z,1023.5
2019-02-20T04:19:44.060Z,1023.5
2019-02-20T04:20:44.037Z,1023.5
2019-02-20T04:21:44.068Z,1023.5
2019-02-20T04:22:44.073Z,1023.5
2019-02-20T04:23:44.082Z,1023.6
2019-02-20T04:24:44.120Z,1023.6
2019-02-20T04:25:44.047Z,1023.6
2019-02-20T04:26:44.055Z,1023.5
2019-02-20T04:27:44.118Z,1023.6
2019-02-20T04:28:44.091Z,1023.5
2019-02-20T04:29:44.101Z,1023.6
2019-02-20T04:30:44.130Z,1023.5
2019-02-20T04:31:44.189Z,1023.5
2019-02-20T04:32:44.134Z,1023.5
2019-02-20T04:33:44.112Z,1023.4
2019-02-20T04:34:44.172Z,1023.4
2019-02-20T04:35:44.127Z,1023.5
2019-02-20T04:36:44.118Z,1023.4
2019-02-20T04:37:44.123Z,1023.4
2019-02-20T04:38:44.279Z,1023.4
2019-02-20T04:39:44.209Z,1023.4
2019-02-20T04:40:44.190Z,1023.4
2019-02-20T04:41:44.176Z,1023.4
2019-02-20T04:42:44.247Z,1023.4
2019-02-20T04:43:44.274Z,1023.5
2019-02-20T04:44:44.262Z,1023.4
2019-02-20T04:45:44.315Z,1023.4
2019-02-20T04:46:44.271Z,1023.5
2019-02-20T04:47:44.312Z,1023.5
2019-02-20T04:48:44.275Z,1023.5
2019-02-20T04:49:44.300Z,1023.5
2019-02-20T04:50:44.284Z,1023.5
2019-02-20T04:51:44.240Z,1023.5
2019-02-20T04:52:44.276Z,1023.4
2019-02-20T04:53:44.282Z,1023.4
2019-02-20T04:54:44.281Z,1023.5
2019-02-20T04:55:44.301Z,1023.6
2019-02-20T04:56:44.274Z,1023.5
2019-02-20T04:57:44.284Z,1023.5
2019-02-20T04:58:44.281Z,1023.6
2019-02-20T04:59:44.304Z,1023.6
2019-02-20T05:00:44.343Z,1023.6
2019-02-20T05:01:44.378Z,1023.5
2019-02-20T05:02:44.356Z,1023.6
2019-02-20T05:03:44.339Z,1023.6
2019-02-20T05:04:44.471Z,1023.6
2019-02-20T05:05:44.637Z,1023.6
2019-02-20T05:06:45.434Z,1023.6
2019-02-20T05:07:44.394Z,1023.6
2019-02-20T05:08:44.406Z,1023.6
2019-02-20T05:09:44.477Z,1023.6
2019-02-20T05:10:44.426Z,1023.6
2019-02-20T05:11:44.444Z,1023.5
2019-02-20T05:12:44.432Z,1023.6
2019-02-20T05:13:44.463Z,1023.6
2019-02-20T05:14:44.452Z,1023.6
2019-02-20T05:15:44.451Z,1023.6
2019-02-20T05:16:44.469Z,1023.6
2019-02-20T05:17:44.462Z,1023.6
2019-02-20T05:18:44.526Z,1023.6
2019-02-20T05:19:44.528Z,1023.5
2019-02-20T05:20:44.499Z,1023.6
2019-02-20T05:21:44.494Z,1023.6
2019-02-20T05:22:44.497Z,1023.6
2019-02-20T05:23:44.482Z,1023.7
2019-02-20T05:24:44.500Z,1023.7
2019-02-20T05:25:44.585Z,1023.7
2019-02-20T05:26:44.578Z,1023.7
2019-02-20T05:27:44.546Z,1023.7
2019-02-20T05:28:44.836Z,1023.7
2019-02-20T05:29:44.604Z,1023.8
2019-02-20T05:30:44.630Z,1023.6
2019-02-20T05:31:44.586Z,1023.7
2019-02-20T05:32:44.609Z,1023.7
2019-02-20T05:33:44.611Z,1023.6
2019-02-20T05:34:44.642Z,1023.6
2019-02-20T05:35:44.650Z,1023.6
2019-02-20T05:36:44.677Z,1023.7
2019-02-20T05:37:44.740Z,1023.7
2019-02-20T05:38:44.663Z,1023.7
2019-02-20T05:39:44.698Z,1023.7
2019-02-20T05:40:44.750Z,1023.7
2019-02-20T05:41:44.700Z,1023.7
2019-02-20T05:42:44.794Z,1023.7
2019-02-20T05:43:44.689Z,1023.7
2019-02-20T05:44:44.789Z,1023.7
2019-02-20T05:45:44.719Z,1023.7
2019-02-20T05:46:44.752Z,1023.6
2019-02-20T05:47:44.688Z,1023.7
2019-02-20T05:48:44.711Z,1023.7
2019-02-20T05:49:44.743Z,1023.7
2019-02-20T05:50:44.745Z,1023.6
2019-02-20T05:51:44.778Z,1023.7
2019-02-20T05:52:44.797Z,1023.8
2019-02-20T05:53:44.779Z,1023.8
2019-02-20T05:54:44.797Z,1023.8
2019-02-20T05:55:44.823Z,1023.8
2019-02-20T05:56:44.872Z,1023.7
2019-02-20T05:57:44.820Z,1023.8
2019-02-20T05:58:44.858Z,1023.9
2019-02-20T05:59:44.880Z,1023.9
2019-02-20T06:00:44.837Z,1023.9
2019-02-20T06:01:45.068Z,1024
2019-02-20T06:02:45.116Z,1024
2019-02-20T06:03:45.919Z,1023.9
2019-02-20T06:04:44.873Z,1023.9
2019-02-20T06:05:44.963Z,1023.8
2019-02-20T06:06:44.910Z,1024
2019-02-20T06:07:44.910Z,1023.9
2019-02-20T06:08:44.916Z,1024
2019-02-20T06:09:44.885Z,1023.9
2019-02-20T06:10:44.920Z,1024
2019-02-20T06:11:44.914Z,1023.9
2019-02-20T06:12:44.912Z,1024
2019-02-20T06:13:44.907Z,1024
2019-02-20T06:14:44.899Z,1024
2019-02-20T06:15:44.998Z,1024.1
2019-02-20T06:16:45.012Z,1024
2019-02-20T06:17:44.998Z,1024.1
2019-02-20T06:18:45.012Z,1024.2
2019-02-20T06:19:45.019Z,1024.2
2019-02-20T06:20:45.076Z,1024.2
2019-02-20T06:21:45.061Z,1024.2
2019-02-20T06:22:45.136Z,1024.1
2019-02-20T06:23:45.053Z,1024.2
2019-02-20T06:24:45.090Z,1024.2
2019-02-20T06:25:45.139Z,1024.2
2019-02-20T06:26:45.075Z,1024.2
2019-02-20T06:27:45.112Z,1024.2
2019-02-20T06:28:45.098Z,1024.2
2019-02-20T06:29:45.160Z,1024.3
2019-02-20T06:30:45.141Z,1024.3
2019-02-20T06:31:45.120Z,1024.3
2019-02-20T06:32:45.127Z,1024.3
2019-02-20T06:33:45.123Z,1024.2
2019-02-20T06:34:45.143Z,1024.3
2019-02-20T06:35:45.194Z,1024.3
2019-02-20T06:36:45.168Z,1024.3
2019-02-20T06:37:45.140Z,1024.4
2019-02-20T06:38:45.158Z,1024.3
2019-02-20T06:39:45.226Z,1024.3
2019-02-20T06:40:45.144Z,1024.4
2019-02-20T06:41:45.218Z,1024.4
2019-02-20T06:42:45.195Z,1024.4
2019-02-20T06:43:45.187Z,1024.4
2019-02-20T06:44:45.227Z,1024.4
2019-02-20T06:45:45.267Z,1024.4
2019-02-20T06:46:45.231Z,1024.4
2019-02-20T06:47:45.303Z,1024.5
2019-02-20T06:48:45.281Z,1024.4
2019-02-20T06:49:45.293Z,1024.5
2019-02-20T06:50:45.305Z,1024.5
2019-02-20T06:51:45.328Z,1024.5
2019-02-20T06:52:45.318Z,1024.5
2019-02-20T06:53:45.335Z,1024.6
2019-02-20T06:54:53.452Z,1024.6
2019-02-20T06:55:45.319Z,1024.6
2019-02-20T06:56:45.321Z,1024.5
2019-02-20T06:57:45.401Z,1024.5
2019-02-20T06:58:45.336Z,1024.5
2019-02-20T06:59:45.339Z,1024.6
2019-02-20T07:00:45.399Z,1024.6
2019-02-20T07:01:45.402Z,1024.6
2019-02-20T07:02:45.349Z,1024.5
2019-02-20T07:03:45.369Z,1024.6
2019-02-20T07:04:45.399Z,1024.6
2019-02-20T07:05:45.371Z,1024.6
2019-02-20T07:06:45.446Z,1024.6
2019-02-20T07:07:45.415Z,1024.7
2019-02-20T07:08:45.421Z,1024.7
2019-02-20T07:09:45.517Z,1024.7
2019-02-20T07:10:45.484Z,1024.7
2019-02-20T07:11:45.459Z,1024.8
2019-02-20T07:12:45.605Z,1024.7
2019-02-20T07:13:45.465Z,1024.8
2019-02-20T07:14:45.492Z,1024.7
2019-02-20T07:15:46.553Z,1024.8
2019-02-20T07:16:45.545Z,1024.7
2019-02-20T07:17:45.551Z,1024.7
2019-02-20T07:18:45.535Z,1024.8
2019-02-20T07:19:45.593Z,1024.8
2019-02-20T07:20:45.574Z,1024.8
2019-02-20T07:21:45.612Z,1024.8
2019-02-20T07:22:45.567Z,1024.7
2019-02-20T07:23:45.554Z,1024.7
2019-02-20T07:24:45.567Z,1024.8
2019-02-20T07:25:45.615Z,1024.9
2019-02-20T07:26:45.582Z,1024.9
2019-02-20T07:27:45.567Z,1024.9
2019-02-20T07:28:45.618Z,1025
2019-02-20T07:29:45.559Z,1025.1
2019-02-20T07:30:45.637Z,1025
2019-02-20T07:31:45.635Z,1025
2019-02-20T07:32:45.647Z,1025
2019-02-20T07:33:45.663Z,1024.9
2019-02-20T07:34:45.646Z,1025
2019-02-20T07:35:45.638Z,1024.9
2019-02-20T07:36:45.703Z,1025
2019-02-20T07:37:45.726Z,1025
2019-02-20T07:38:45.693Z,1025.1
2019-02-20T07:39:45.683Z,1025.1
2019-02-20T07:40:45.738Z,1025.1
2019-02-20T07:41:45.692Z,1025
2019-02-20T07:42:45.786Z,1025.1
2019-02-20T07:43:45.786Z,1025.1
2019-02-20T07:44:45.747Z,1025
2019-02-20T07:45:45.753Z,1025.1
2019-02-20T07:46:45.806Z,1025
2019-02-20T07:47:45.766Z,1025.1
2019-02-20T07:48:45.819Z,1025
2019-02-20T07:49:45.795Z,1024.9
2019-02-20T07:50:45.764Z,1025
2019-02-20T07:51:45.795Z,1025
2019-02-20T07:52:45.794Z,1025.1
2019-02-20T07:53:45.874Z,1025.2
2019-02-20T07:54:45.813Z,1025.2
2019-02-20T07:55:45.848Z,1025.1
2019-02-20T07:56:45.907Z,1025.3
2019-02-20T07:57:45.888Z,1025.2
2019-02-20T07:58:45.928Z,1025.2
2019-02-20T07:59:45.877Z,1025.2
2019-02-20T08:00:46.021Z,1025.2
2019-02-20T08:01:45.929Z,1025.2
2019-02-20T08:02:45.916Z,1025.2
2019-02-20T08:03:45.937Z,1025.2
2019-02-20T08:04:45.991Z,1025.3
2019-02-20T08:05:45.956Z,1025.3
2019-02-20T08:06:45.964Z,1025.3
2019-02-20T08:07:45.948Z,1025.2
2019-02-20T08:08:46.066Z,1025.2
2019-02-20T08:09:46.046Z,1025.3
2019-02-20T08:10:45.984Z,1025.3
2019-02-20T08:11:45.989Z,1025.2
2019-02-20T08:12:46.005Z,1025.3
2019-02-20T08:13:46.006Z,1025.3
2019-02-20T08:14:46.102Z,1025.3
2019-02-20T08:15:46.046Z,1025.4
2019-02-20T08:16:52.166Z,1025.4
2019-02-20T08:17:46.047Z,1025.4
2019-02-20T08:18:46.013Z,1025.3
2019-02-20T08:19:46.055Z,1025.4
2019-02-20T08:20:46.043Z,1025.5
2019-02-20T08:21:46.040Z,1025.4
2019-02-20T08:22:46.127Z,1025.4
2019-02-20T08:23:46.047Z,1025.5
2019-02-20T08:24:46.108Z,1025.4
2019-02-20T08:25:46.074Z,1025.4
2019-02-20T08:26:46.085Z,1025.5
2019-02-20T08:27:46.100Z,1025.4
2019-02-20T08:28:46.094Z,1025.4
2019-02-20T08:29:51.088Z,1025.4
2019-02-20T08:30:46.172Z,1025.4
2019-02-20T08:31:46.118Z,1025.4
2019-02-20T08:32:46.149Z,1025.4
2019-02-20T08:33:46.147Z,1025.4
2019-02-20T08:34:46.252Z,1025.4
2019-02-20T08:35:46.215Z,1025.4
2019-02-20T08:36:46.223Z,1025.4
2019-02-20T08:37:46.197Z,1025.4
2019-02-20T08:38:46.205Z,1025.4
2019-02-20T08:39:46.226Z,1025.4
2019-02-20T08:40:46.218Z,1025.4
2019-02-20T08:41:46.254Z,1025.4
2019-02-20T08:42:46.238Z,1025.4
2019-02-20T08:43:46.250Z,1025.5
2019-02-20T08:44:46.259Z,1025.5
2019-02-20T08:45:46.315Z,1025.4
2019-02-20T08:46:46.221Z,1025.4
2019-02-20T08:47:46.229Z,1025.5
2019-02-20T08:48:46.278Z,1025.5
2019-02-20T08:49:46.342Z,1025.4
2019-02-20T08:50:46.296Z,1025.5
2019-02-20T08:51:46.328Z,1025.5
2019-02-20T08:52:46.511Z,1025.5
2019-02-20T08:53:46.312Z,1025.5
2019-02-20T08:54:46.321Z,1025.5
2019-02-20T08:55:46.292Z,1025.5
2019-02-20T08:56:46.409Z,1025.6
2019-02-20T08:57:46.390Z,1025.5
2019-02-20T08:58:46.337Z,1025.5
2019-02-20T08:59:46.340Z,1025.7
2019-02-20T09:00:46.383Z,1025.7
2019-02-20T09:01:46.354Z,1025.6
2019-02-20T09:02:46.418Z,1025.7
2019-02-20T09:03:46.405Z,1025.6
2019-02-20T09:04:46.402Z,1025.6
2019-02-20T09:05:46.389Z,1025.7
2019-02-20T09:06:46.383Z,1025.6
2019-02-20T09:07:46.403Z,1025.6
2019-02-20T09:08:46.435Z,1025.6
2019-02-20T09:09:46.412Z,1025.7
2019-02-20T09:10:46.411Z,1025.6
2019-02-20T09:11:46.409Z,1025.6
2019-02-20T09:12:46.399Z,1025.7
2019-02-20T09:13:46.413Z,1025.8
2019-02-20T09:14:46.447Z,1025.7
2019-02-20T09:15:46.416Z,1025.7
2019-02-20T09:16:46.428Z,1025.6
2019-02-20T09:17:46.442Z,1025.7
2019-02-20T09:18:46.477Z,1025.7
2019-02-20T09:19:46.475Z,1025.7
2019-02-20T09:20:46.442Z,1025.6
2019-02-20T09:21:46.476Z,1025.7
2019-02-20T09:22:46.464Z,1025.7
2019-02-20T09:23:46.468Z,1025.6
2019-02-20T09:24:46.575Z,1025.6
2019-02-20T09:25:46.468Z,1025.6
2019-02-20T09:26:46.496Z,1025.6
2019-02-20T09:27:46.495Z,1025.5
2019-02-20T09:28:46.493Z,1025.6
2019-02-20T09:29:46.560Z,1025.6
2019-02-20T09:30:46.503Z,1025.6
2019-02-20T09:31:46.495Z,1025.6
2019-02-20T09:32:46.495Z,1025.6
2019-02-20T09:33:46.535Z,1025.7
2019-02-20T09:34:46.521Z,1025.6
2019-02-20T09:35:46.545Z,1025.7
2019-02-20T09:36:46.539Z,1025.7
2019-02-20T09:37:46.522Z,1025.7
2019-02-20T09:38:46.540Z,1025.7
2019-02-20T09:39:46.568Z,1025.6
2019-02-20T09:40:46.596Z,1025.7
2019-02-20T09:41:46.546Z,1025.6
2019-02-20T09:42:46.578Z,1025.7
2019-02-20T09:43:46.572Z,1025.7
2019-02-20T09:44:46.572Z,1025.7
2019-02-20T09:45:46.613Z,1025.6
2019-02-20T09:46:46.619Z,1025.7
2019-02-20T09:47:46.599Z,1025.7
2019-02-20T09:48:46.621Z,1025.6
2019-02-20T09:49:46.607Z,1025.7
2019-02-20T09:50:47.744Z,1025.7
2019-02-20T09:51:46.670Z,1025.7
2019-02-20T09:52:52.153Z,1025.7
2019-02-20T09:53:46.657Z,1025.7
2019-02-20T09:54:46.636Z,1025.8
2019-02-20T09:55:51.433Z,1025.7
2019-02-20T09:56:46.649Z,1025.8
2019-02-20T09:57:46.686Z,1025.7
2019-02-20T09:58:46.647Z,1025.8
2019-02-20T09:59:46.651Z,1025.8
2019-02-20T10:00:46.719Z,1025.8
2019-02-20T10:01:46.665Z,1025.8
2019-02-20T10:02:47.339Z,1025.8
2019-02-20T10:03:46.709Z,1025.8
2019-02-20T10:04:46.714Z,1025.8
2019-02-20T10:05:46.768Z,1025.7
2019-02-20T10:06:46.766Z,1025.7
2019-02-20T10:07:46.756Z,1025.7
2019-02-20T10:08:46.782Z,1025.7
2019-02-20T10:09:51.749Z,1025.7
2019-02-20T10:10:46.928Z,1025.8
2019-02-20T10:11:46.828Z,1025.7
2019-02-20T10:12:46.803Z,1025.7
2019-02-20T10:13:46.816Z,1025.7
2019-02-20T10:14:46.836Z,1025.7
2019-02-20T10:15:46.798Z,1025.6
2019-02-20T10:16:46.875Z,1025.7
2019-02-20T10:17:46.934Z,1025.7
2019-02-20T10:18:46.822Z,1025.7
2019-02-20T10:19:46.869Z,1025.7
2019-02-20T10:20:46.836Z,1025.7
2019-02-20T10:21:46.878Z,1025.7
2019-02-20T10:22:46.862Z,1025.7
2019-02-20T10:23:46.860Z,1025.7
2019-02-20T10:24:46.857Z,1025.7
2019-02-20T10:25:46.890Z,1025.7
2019-02-20T10:26:46.990Z,1025.7
2019-02-20T10:27:46.913Z,1025.6
2019-02-20T10:28:46.950Z,1025.7
2019-02-20T10:29:46.991Z,1025.7
2019-02-20T10:30:46.987Z,1025.7
2019-02-20T10:31:49.060Z,1025.7
2019-02-20T10:32:47.000Z,1025.7
2019-02-20T10:33:46.988Z,1025.7
2019-02-20T10:34:46.996Z,1025.7
2019-02-20T10:35:46.990Z,1025.7
2019-02-20T10:36:47.036Z,1025.7
2019-02-20T10:37:47.020Z,1025.6
2019-02-20T10:38:47.028Z,1025.7
2019-02-20T10:39:47.025Z,1025.6
2019-02-20T10:40:47.117Z,1025.7
2019-02-20T10:41:47.060Z,1025.8
2019-02-20T10:42:47.063Z,1025.7
2019-02-20T10:43:47.064Z,1025.6
2019-02-20T10:44:47.072Z,1025.7
2019-02-20T10:45:47.093Z,1025.7
2019-02-20T10:46:47.090Z,1025.6
2019-02-20T10:47:47.093Z,1025.6
2019-02-20T10:48:47.081Z,1025.5
2019-02-20T10:49:47.082Z,1025.6
2019-02-20T10:50:47.108Z,1025.6
2019-02-20T10:51:47.109Z,1025.6
2019-02-20T10:52:47.151Z,1025.5
2019-02-20T10:53:47.163Z,1025.5
2019-02-20T10:54:47.162Z,1025.6
2019-02-20T10:55:47.176Z,1025.5
2019-02-20T10:56:47.247Z,1025.5
2019-02-20T10:57:47.163Z,1025.5
2019-02-20T10:58:47.209Z,1025.4
2019-02-20T10:59:47.223Z,1025.4
2019-02-20T11:00:47.214Z,1025.5
2019-02-20T11:01:47.267Z,1025.4
2019-02-20T11:02:47.215Z,1025.5
2019-02-20T11:03:47.238Z,1025.5
2019-02-20T11:04:47.262Z,1025.5
2019-02-20T11:05:47.318Z,1025.4
2019-02-20T11:06:47.274Z,1025.4
2019-02-20T11:07:47.270Z,1025.5
2019-02-20T11:08:47.251Z,1025.5
2019-02-20T11:09:47.276Z,1025.5
2019-02-20T11:10:47.300Z,1025.5
2019-02-20T11:11:47.292Z,1025.6
2019-02-20T11:12:47.254Z,1025.5
2019-02-20T11:13:47.261Z,1025.5
2019-02-20T11:14:48.885Z,1025.5
2019-02-20T11:15:47.293Z,1025.5
2019-02-20T11:16:47.343Z,1025.5
2019-02-20T11:17:47.374Z,1025.5
2019-02-20T11:18:47.355Z,1025.5
2019-02-20T11:19:47.343Z,1025.5
2019-02-20T11:20:48.529Z,1025.5
2019-02-20T11:21:47.372Z,1025.5
2019-02-20T11:22:48.593Z,1025.5
2019-02-20T11:23:47.413Z,1025.5
2019-02-20T11:24:47.427Z,1025.5
2019-02-20T11:25:47.414Z,1025.5
2019-02-20T11:26:54.196Z,1025.4
2019-02-20T11:27:47.459Z,1025.5
2019-02-20T11:28:52.480Z,1025.5
2019-02-20T11:29:47.430Z,1025.5
2019-02-20T11:30:47.440Z,1025.6
2019-02-20T11:31:47.456Z,1025.5
2019-02-20T11:32:47.458Z,1025.5
2019-02-20T11:33:47.497Z,1025.4
2019-02-20T11:34:47.465Z,1025.4
2019-02-20T11:35:47.480Z,1025.4
2019-02-20T11:36:49.310Z,1025.4
2019-02-20T11:37:47.475Z,1025.4
2019-02-20T11:38:47.509Z,1025.4
2019-02-20T11:39:47.498Z,1025.4
2019-02-20T11:40:47.562Z,1025.3
2019-02-20T11:41:47.550Z,1025.3
2019-02-20T11:42:47.540Z,1025.4
2019-02-20T11:43:47.557Z,1025.3
2019-02-20T11:44:47.599Z,1025.4
2019-02-20T11:45:47.579Z,1025.3
2019-02-20T11:46:47.618Z,1025.3
2019-02-20T11:47:47.605Z,1025.3
2019-02-20T11:48:47.609Z,1025.4
2019-02-20T11:49:47.620Z,1025.4
2019-02-20T11:50:47.617Z,1025.2
2019-02-20T11:51:47.684Z,1025.3
2019-02-20T11:52:47.634Z,1025.3
2019-02-20T11:53:47.652Z,1025.2
2019-02-20T11:54:47.647Z,1025.2
2019-02-20T11:55:47.686Z,1025.3
2019-02-20T11:56:47.729Z,1025.3
2019-02-20T11:57:47.692Z,1025.3
2019-02-20T11:58:47.717Z,1025.4
2019-02-20T11:59:47.735Z,1025.4
2019-02-20T12:00:47.715Z,1025.3
2019-02-20T12:01:47.758Z,1025.3
2019-02-20T12:02:47.725Z,1025.2
2019-02-20T12:03:47.706Z,1025.3
2019-02-20T12:04:47.738Z,1025.3
2019-02-20T12:05:47.751Z,1025.3
2019-02-20T12:06:47.787Z,1025.3
2019-02-20T12:07:47.774Z,1025.3
2019-02-20T12:08:47.786Z,1025.3
2019-02-20T12:09:47.785Z,1025.3
2019-02-20T12:10:47.805Z,1025.2
2019-02-20T12:11:47.881Z,1025.2
2019-02-20T12:12:47.818Z,1025.2
2019-02-20T12:13:47.818Z,1025.3
2019-02-20T12:14:47.845Z,1025.3
2019-02-20T12:15:47.882Z,1025.1
2019-02-20T12:16:47.894Z,1025.1
2019-02-20T12:17:47.893Z,1025.1
2019-02-20T12:18:47.937Z,1025.2
2019-02-20T12:19:47.882Z,1025.3
2019-02-20T12:20:47.969Z,1025.1
2019-02-20T12:21:47.890Z,1025.2
2019-02-20T12:22:47.918Z,1025.1
2019-02-20T12:23:47.929Z,1025.1
2019-02-20T12:24:47.894Z,1025.2
2019-02-20T12:25:47.900Z,1025.2
2019-02-20T12:26:47.915Z,1025.3
2019-02-20T12:27:47.959Z,1025.3
2019-02-20T12:28:47.938Z,1025.3
2019-02-20T12:29:47.928Z,1025.2
2019-02-20T12:30:47.931Z,1025.2
2019-02-20T12:31:52.388Z,1025.2
2019-02-20T12:32:47.985Z,1025.2
2019-02-20T12:33:47.988Z,1025.2